<?xml version="1.0" encoding="UTF-8" standalone="no" ?>
<gpx xmlns="http://www.topografix.com/GPX/1/1" xmlns:xsi="http://www.w3.org/2001/XMLSchema-instance" xsi:schemaLocation="http://www.topografix.com/GPX/1/1 http://www.topografix.com/GPX/1/1/gpx.xsd" version="1.1" creator="VisuGPX - https://www.visugpx.com">
  <metadata>
    <name>Tour du Lac de Vingeanne</name>
  </metadata>
  <wpt lat="47.7437" lon="5.32247">
    <ele>299</ele>
    <name><![CDATA[Parking base nautique]]></name>
  </wpt>
  <wpt lat="47.73966" lon="5.3088">
    <ele>302.3</ele>
    <name><![CDATA[Prendre à droite juste après le fossé]]></name>
  </wpt>
  <wpt lat="47.74554" lon="5.30558">
    <ele>303.9</ele>
    <name><![CDATA[Traversée D974]]></name>
  </wpt>
  <wpt lat="47.75008" lon="5.29504">
    <ele>305.1</ele>
    <name><![CDATA[A droite vers la station de pompage]]></name>
  </wpt>
  <wpt lat="47.75212" lon="5.29625">
    <ele>306.9</ele>
    <name><![CDATA[Station de pompage ]]></name>
  </wpt>
  <wpt lat="47.7525" lon="5.30684">
    <ele>305.6</ele>
    <name><![CDATA[Traversée D974]]></name>
  </wpt>
  <wpt lat="47.75722" lon="5.31289">
    <ele>303.1</ele>
    <name><![CDATA[A droite vers le village]]></name>
  </wpt>
  <wpt lat="47.75763" lon="5.31733">
    <ele>304.4</ele>
    <name><![CDATA[A droite vers l'Orée du Bois des Loges]]></name>
  </wpt>
  <wpt lat="47.75234" lon="5.32301">
    <ele>303.6</ele>
    <name><![CDATA[Jonction D128]]></name>
  </wpt>
  <wpt lat="47.74761" lon="5.32011">
    <ele>300.3</ele>
    <name><![CDATA[Parking Nord]]></name>
  </wpt>
  <wpt lat="47.74369" lon="5.32247">
    <ele>299</ele>
    <name><![CDATA[Parking base nautique]]></name>
  </wpt>
  <trk>
    <name><![CDATA[Tour du Lac de Vingeanne]]></name>
    <trkseg>
      <trkpt lat="47.7437" lon="5.32247">
        <ele>301</ele>
        <time>2020-08-31T19:59:18 02:00</time>
      </trkpt>
      <trkpt lat="47.74346" lon="5.32286">
        <ele>302</ele>
        <time>2020-08-31T19:59:23 02:00</time>
      </trkpt>
      <trkpt lat="47.74332" lon="5.32312">
        <ele>302</ele>
        <time>2020-08-31T19:59:28 02:00</time>
      </trkpt>
      <trkpt lat="47.74326" lon="5.32308">
        <ele>302</ele>
        <time>2020-08-31T19:59:33 02:00</time>
      </trkpt>
      <trkpt lat="47.73955" lon="5.31675">
        <ele>295</ele>
        <time>2020-08-31T19:59:38 02:00</time>
      </trkpt>
      <trkpt lat="47.73936" lon="5.31635">
        <ele>295</ele>
        <time>2020-08-31T19:59:43 02:00</time>
      </trkpt>
      <trkpt lat="47.73907" lon="5.31554">
        <ele>296</ele>
        <time>2020-08-31T19:59:48 02:00</time>
      </trkpt>
      <trkpt lat="47.73892" lon="5.31473">
        <ele>296</ele>
        <time>2020-08-31T19:59:53 02:00</time>
      </trkpt>
      <trkpt lat="47.73884" lon="5.31387">
        <ele>294</ele>
        <time>2020-08-31T19:59:58 02:00</time>
      </trkpt>
      <trkpt lat="47.73884" lon="5.31318">
        <ele>295</ele>
        <time>2020-08-31T20:00:03 02:00</time>
      </trkpt>
      <trkpt lat="47.73931" lon="5.30899">
        <ele>301</ele>
        <time>2020-08-31T20:00:08 02:00</time>
      </trkpt>
      <trkpt lat="47.73939" lon="5.30883">
        <ele>302</ele>
        <time>2020-08-31T20:00:13 02:00</time>
      </trkpt>
      <trkpt lat="47.73966" lon="5.3088">
        <ele>302</ele>
        <time>2020-08-31T20:00:18 02:00</time>
      </trkpt>
      <trkpt lat="47.73966" lon="5.3091">
        <ele>302</ele>
        <time>2020-08-31T20:00:23 02:00</time>
      </trkpt>
      <trkpt lat="47.74006" lon="5.30927">
        <ele>301</ele>
        <time>2020-08-31T20:00:28 02:00</time>
      </trkpt>
      <trkpt lat="47.74104" lon="5.30935">
        <ele>301</ele>
        <time>2020-08-31T20:00:33 02:00</time>
      </trkpt>
      <trkpt lat="47.74144" lon="5.30949">
        <ele>302</ele>
        <time>2020-08-31T20:00:38 02:00</time>
      </trkpt>
      <trkpt lat="47.74188" lon="5.30974">
        <ele>304</ele>
        <time>2020-08-31T20:00:43 02:00</time>
      </trkpt>
      <trkpt lat="47.74255" lon="5.31022">
        <ele>302</ele>
        <time>2020-08-31T20:00:48 02:00</time>
      </trkpt>
      <trkpt lat="47.74325" lon="5.31072">
        <ele>302</ele>
        <time>2020-08-31T20:00:53 02:00</time>
      </trkpt>
      <trkpt lat="47.74341" lon="5.31078">
        <ele>302</ele>
        <time>2020-08-31T20:00:58 02:00</time>
      </trkpt>
      <trkpt lat="47.7437" lon="5.31083">
        <ele>299</ele>
        <time>2020-08-31T20:01:03 02:00</time>
      </trkpt>
      <trkpt lat="47.74396" lon="5.31079">
        <ele>297</ele>
        <time>2020-08-31T20:01:08 02:00</time>
      </trkpt>
      <trkpt lat="47.74456" lon="5.31043">
        <ele>301</ele>
        <time>2020-08-31T20:01:13 02:00</time>
      </trkpt>
      <trkpt lat="47.74485" lon="5.31019">
        <ele>304</ele>
        <time>2020-08-31T20:01:18 02:00</time>
      </trkpt>
      <trkpt lat="47.74508" lon="5.30989">
        <ele>305</ele>
        <time>2020-08-31T20:01:23 02:00</time>
      </trkpt>
      <trkpt lat="47.74514" lon="5.30932">
        <ele>304</ele>
        <time>2020-08-31T20:01:28 02:00</time>
      </trkpt>
      <trkpt lat="47.74515" lon="5.30872">
        <ele>304</ele>
        <time>2020-08-31T20:01:33 02:00</time>
      </trkpt>
      <trkpt lat="47.74521" lon="5.30834">
        <ele>304</ele>
        <time>2020-08-31T20:01:38 02:00</time>
      </trkpt>
      <trkpt lat="47.74516" lon="5.30796">
        <ele>304</ele>
        <time>2020-08-31T20:01:43 02:00</time>
      </trkpt>
      <trkpt lat="47.74512" lon="5.30744">
        <ele>304</ele>
        <time>2020-08-31T20:01:48 02:00</time>
      </trkpt>
      <trkpt lat="47.74517" lon="5.30583">
        <ele>304</ele>
        <time>2020-08-31T20:01:53 02:00</time>
      </trkpt>
      <trkpt lat="47.74535" lon="5.3057">
        <ele>304</ele>
        <time>2020-08-31T20:01:58 02:00</time>
      </trkpt>
      <trkpt lat="47.74537" lon="5.30555">
        <ele>304</ele>
        <time>2020-08-31T20:02:03 02:00</time>
      </trkpt>
      <trkpt lat="47.74554" lon="5.30558">
        <ele>304</ele>
        <time>2020-08-31T20:02:08 02:00</time>
      </trkpt>
      <trkpt lat="47.74556" lon="5.30541">
        <ele>304</ele>
        <time>2020-08-31T20:02:13 02:00</time>
      </trkpt>
      <trkpt lat="47.74571" lon="5.30544">
        <ele>303</ele>
        <time>2020-08-31T20:02:18 02:00</time>
      </trkpt>
      <trkpt lat="47.74581" lon="5.30517">
        <ele>304</ele>
        <time>2020-08-31T20:02:23 02:00</time>
      </trkpt>
      <trkpt lat="47.74635" lon="5.30505">
        <ele>303</ele>
        <time>2020-08-31T20:02:28 02:00</time>
      </trkpt>
      <trkpt lat="47.7465" lon="5.305">
        <ele>303</ele>
        <time>2020-08-31T20:02:33 02:00</time>
      </trkpt>
      <trkpt lat="47.74682" lon="5.30474">
        <ele>303</ele>
        <time>2020-08-31T20:02:38 02:00</time>
      </trkpt>
      <trkpt lat="47.74691" lon="5.30461">
        <ele>302</ele>
        <time>2020-08-31T20:02:43 02:00</time>
      </trkpt>
      <trkpt lat="47.74696" lon="5.30448">
        <ele>302</ele>
        <time>2020-08-31T20:02:48 02:00</time>
      </trkpt>
      <trkpt lat="47.74724" lon="5.30315">
        <ele>305</ele>
        <time>2020-08-31T20:02:53 02:00</time>
      </trkpt>
      <trkpt lat="47.74744" lon="5.30257">
        <ele>304</ele>
        <time>2020-08-31T20:02:58 02:00</time>
      </trkpt>
      <trkpt lat="47.74753" lon="5.30216">
        <ele>304</ele>
        <time>2020-08-31T20:03:03 02:00</time>
      </trkpt>
      <trkpt lat="47.74751" lon="5.30183">
        <ele>305</ele>
        <time>2020-08-31T20:03:08 02:00</time>
      </trkpt>
      <trkpt lat="47.74742" lon="5.30135">
        <ele>305</ele>
        <time>2020-08-31T20:03:13 02:00</time>
      </trkpt>
      <trkpt lat="47.74717" lon="5.30055">
        <ele>304</ele>
        <time>2020-08-31T20:03:18 02:00</time>
      </trkpt>
      <trkpt lat="47.74712" lon="5.30009">
        <ele>304</ele>
        <time>2020-08-31T20:03:23 02:00</time>
      </trkpt>
      <trkpt lat="47.74715" lon="5.29995">
        <ele>304</ele>
        <time>2020-08-31T20:03:28 02:00</time>
      </trkpt>
      <trkpt lat="47.74736" lon="5.29972">
        <ele>304</ele>
        <time>2020-08-31T20:03:33 02:00</time>
      </trkpt>
      <trkpt lat="47.74764" lon="5.29968">
        <ele>303</ele>
        <time>2020-08-31T20:03:38 02:00</time>
      </trkpt>
      <trkpt lat="47.74778" lon="5.29951">
        <ele>302</ele>
        <time>2020-08-31T20:03:43 02:00</time>
      </trkpt>
      <trkpt lat="47.7478" lon="5.29837">
        <ele>304</ele>
        <time>2020-08-31T20:03:48 02:00</time>
      </trkpt>
      <trkpt lat="47.7479" lon="5.29805">
        <ele>303</ele>
        <time>2020-08-31T20:03:53 02:00</time>
      </trkpt>
      <trkpt lat="47.74842" lon="5.29733">
        <ele>303</ele>
        <time>2020-08-31T20:03:58 02:00</time>
      </trkpt>
      <trkpt lat="47.74882" lon="5.29692">
        <ele>304</ele>
        <time>2020-08-31T20:04:03 02:00</time>
      </trkpt>
      <trkpt lat="47.74901" lon="5.29665">
        <ele>305</ele>
        <time>2020-08-31T20:04:08 02:00</time>
      </trkpt>
      <trkpt lat="47.74904" lon="5.29649">
        <ele>305</ele>
        <time>2020-08-31T20:04:13 02:00</time>
      </trkpt>
      <trkpt lat="47.74905" lon="5.29607">
        <ele>306</ele>
        <time>2020-08-31T20:04:18 02:00</time>
      </trkpt>
      <trkpt lat="47.74909" lon="5.29579">
        <ele>307</ele>
        <time>2020-08-31T20:04:23 02:00</time>
      </trkpt>
      <trkpt lat="47.7492" lon="5.29564">
        <ele>307</ele>
        <time>2020-08-31T20:04:28 02:00</time>
      </trkpt>
      <trkpt lat="47.74946" lon="5.29552">
        <ele>307</ele>
        <time>2020-08-31T20:04:33 02:00</time>
      </trkpt>
      <trkpt lat="47.74991" lon="5.29546">
        <ele>308</ele>
        <time>2020-08-31T20:04:38 02:00</time>
      </trkpt>
      <trkpt lat="47.75003" lon="5.2953">
        <ele>307</ele>
        <time>2020-08-31T20:04:43 02:00</time>
      </trkpt>
      <trkpt lat="47.75008" lon="5.29504">
        <ele>304</ele>
        <time>2020-08-31T20:04:48 02:00</time>
      </trkpt>
      <trkpt lat="47.75033" lon="5.29516">
        <ele>305</ele>
        <time>2020-08-31T20:04:53 02:00</time>
      </trkpt>
      <trkpt lat="47.75066" lon="5.29522">
        <ele>306</ele>
        <time>2020-08-31T20:04:58 02:00</time>
      </trkpt>
      <trkpt lat="47.75081" lon="5.29535">
        <ele>307</ele>
        <time>2020-08-31T20:05:03 02:00</time>
      </trkpt>
      <trkpt lat="47.75096" lon="5.29567">
        <ele>310</ele>
        <time>2020-08-31T20:05:08 02:00</time>
      </trkpt>
      <trkpt lat="47.75106" lon="5.29591">
        <ele>311</ele>
        <time>2020-08-31T20:05:13 02:00</time>
      </trkpt>
      <trkpt lat="47.75128" lon="5.29604">
        <ele>311</ele>
        <time>2020-08-31T20:05:18 02:00</time>
      </trkpt>
      <trkpt lat="47.75203" lon="5.29625">
        <ele>307</ele>
        <time>2020-08-31T20:05:23 02:00</time>
      </trkpt>
      <trkpt lat="47.75212" lon="5.29625">
        <ele>307</ele>
        <time>2020-08-31T20:05:28 02:00</time>
      </trkpt>
      <trkpt lat="47.75232" lon="5.29647">
        <ele>306</ele>
        <time>2020-08-31T20:05:33 02:00</time>
      </trkpt>
      <trkpt lat="47.75245" lon="5.29677">
        <ele>306</ele>
        <time>2020-08-31T20:05:38 02:00</time>
      </trkpt>
      <trkpt lat="47.75263" lon="5.2973">
        <ele>306</ele>
        <time>2020-08-31T20:05:43 02:00</time>
      </trkpt>
      <trkpt lat="47.75269" lon="5.29757">
        <ele>305</ele>
        <time>2020-08-31T20:05:48 02:00</time>
      </trkpt>
      <trkpt lat="47.75272" lon="5.29815">
        <ele>303</ele>
        <time>2020-08-31T20:05:53 02:00</time>
      </trkpt>
      <trkpt lat="47.75261" lon="5.29893">
        <ele>303</ele>
        <time>2020-08-31T20:05:58 02:00</time>
      </trkpt>
      <trkpt lat="47.75271" lon="5.30029">
        <ele>304</ele>
        <time>2020-08-31T20:06:03 02:00</time>
      </trkpt>
      <trkpt lat="47.75288" lon="5.30052">
        <ele>304</ele>
        <time>2020-08-31T20:06:08 02:00</time>
      </trkpt>
      <trkpt lat="47.75322" lon="5.3007">
        <ele>305</ele>
        <time>2020-08-31T20:06:13 02:00</time>
      </trkpt>
      <trkpt lat="47.75365" lon="5.30081">
        <ele>304</ele>
        <time>2020-08-31T20:06:18 02:00</time>
      </trkpt>
      <trkpt lat="47.75374" lon="5.30101">
        <ele>304</ele>
        <time>2020-08-31T20:06:23 02:00</time>
      </trkpt>
      <trkpt lat="47.75388" lon="5.30183">
        <ele>303</ele>
        <time>2020-08-31T20:06:28 02:00</time>
      </trkpt>
      <trkpt lat="47.75419" lon="5.30302">
        <ele>308</ele>
        <time>2020-08-31T20:06:33 02:00</time>
      </trkpt>
      <trkpt lat="47.7544" lon="5.30365">
        <ele>308</ele>
        <time>2020-08-31T20:06:38 02:00</time>
      </trkpt>
      <trkpt lat="47.7546" lon="5.30519">
        <ele>306</ele>
        <time>2020-08-31T20:06:43 02:00</time>
      </trkpt>
      <trkpt lat="47.75454" lon="5.30564">
        <ele>306</ele>
        <time>2020-08-31T20:06:48 02:00</time>
      </trkpt>
      <trkpt lat="47.75441" lon="5.30588">
        <ele>306</ele>
        <time>2020-08-31T20:06:53 02:00</time>
      </trkpt>
      <trkpt lat="47.75416" lon="5.30611">
        <ele>306</ele>
        <time>2020-08-31T20:06:58 02:00</time>
      </trkpt>
      <trkpt lat="47.754" lon="5.30621">
        <ele>307</ele>
        <time>2020-08-31T20:07:03 02:00</time>
      </trkpt>
      <trkpt lat="47.75369" lon="5.30637">
        <ele>308</ele>
        <time>2020-08-31T20:07:08 02:00</time>
      </trkpt>
      <trkpt lat="47.75325" lon="5.30644">
        <ele>309</ele>
        <time>2020-08-31T20:07:13 02:00</time>
      </trkpt>
      <trkpt lat="47.75281" lon="5.30639">
        <ele>307</ele>
        <time>2020-08-31T20:07:18 02:00</time>
      </trkpt>
      <trkpt lat="47.75258" lon="5.30636">
        <ele>305</ele>
        <time>2020-08-31T20:07:23 02:00</time>
      </trkpt>
      <trkpt lat="47.7525" lon="5.30684">
        <ele>305</ele>
        <time>2020-08-31T20:07:28 02:00</time>
      </trkpt>
      <trkpt lat="47.75248" lon="5.30695">
        <ele>305</ele>
        <time>2020-08-31T20:07:33 02:00</time>
      </trkpt>
      <trkpt lat="47.75221" lon="5.30716">
        <ele>304</ele>
        <time>2020-08-31T20:07:38 02:00</time>
      </trkpt>
      <trkpt lat="47.75203" lon="5.30732">
        <ele>303</ele>
        <time>2020-08-31T20:07:43 02:00</time>
      </trkpt>
      <trkpt lat="47.7519" lon="5.30754">
        <ele>303</ele>
        <time>2020-08-31T20:07:48 02:00</time>
      </trkpt>
      <trkpt lat="47.7518" lon="5.30776">
        <ele>303</ele>
        <time>2020-08-31T20:07:53 02:00</time>
      </trkpt>
      <trkpt lat="47.75172" lon="5.30824">
        <ele>303</ele>
        <time>2020-08-31T20:07:58 02:00</time>
      </trkpt>
      <trkpt lat="47.75169" lon="5.30902">
        <ele>303</ele>
        <time>2020-08-31T20:08:03 02:00</time>
      </trkpt>
      <trkpt lat="47.75136" lon="5.30959">
        <ele>303</ele>
        <time>2020-08-31T20:08:08 02:00</time>
      </trkpt>
      <trkpt lat="47.75111" lon="5.31015">
        <ele>303</ele>
        <time>2020-08-31T20:08:13 02:00</time>
      </trkpt>
      <trkpt lat="47.75094" lon="5.31055">
        <ele>303</ele>
        <time>2020-08-31T20:08:18 02:00</time>
      </trkpt>
      <trkpt lat="47.75091" lon="5.31088">
        <ele>303</ele>
        <time>2020-08-31T20:08:23 02:00</time>
      </trkpt>
      <trkpt lat="47.75092" lon="5.31131">
        <ele>301</ele>
        <time>2020-08-31T20:08:28 02:00</time>
      </trkpt>
      <trkpt lat="47.75133" lon="5.3118">
        <ele>301</ele>
        <time>2020-08-31T20:08:33 02:00</time>
      </trkpt>
      <trkpt lat="47.75158" lon="5.31203">
        <ele>302</ele>
        <time>2020-08-31T20:08:38 02:00</time>
      </trkpt>
      <trkpt lat="47.75257" lon="5.3125">
        <ele>302</ele>
        <time>2020-08-31T20:08:43 02:00</time>
      </trkpt>
      <trkpt lat="47.75327" lon="5.31261">
        <ele>305</ele>
        <time>2020-08-31T20:08:48 02:00</time>
      </trkpt>
      <trkpt lat="47.75376" lon="5.31255">
        <ele>305</ele>
        <time>2020-08-31T20:08:53 02:00</time>
      </trkpt>
      <trkpt lat="47.75425" lon="5.31246">
        <ele>305</ele>
        <time>2020-08-31T20:08:58 02:00</time>
      </trkpt>
      <trkpt lat="47.75468" lon="5.31314">
        <ele>305</ele>
        <time>2020-08-31T20:09:03 02:00</time>
      </trkpt>
      <trkpt lat="47.75495" lon="5.31337">
        <ele>305</ele>
        <time>2020-08-31T20:09:08 02:00</time>
      </trkpt>
      <trkpt lat="47.75536" lon="5.31348">
        <ele>305</ele>
        <time>2020-08-31T20:09:13 02:00</time>
      </trkpt>
      <trkpt lat="47.75576" lon="5.31344">
        <ele>306</ele>
        <time>2020-08-31T20:09:18 02:00</time>
      </trkpt>
      <trkpt lat="47.75594" lon="5.31335">
        <ele>306</ele>
        <time>2020-08-31T20:09:23 02:00</time>
      </trkpt>
      <trkpt lat="47.75629" lon="5.31297">
        <ele>304</ele>
        <time>2020-08-31T20:09:28 02:00</time>
      </trkpt>
      <trkpt lat="47.75665" lon="5.31289">
        <ele>304</ele>
        <time>2020-08-31T20:09:33 02:00</time>
      </trkpt>
      <trkpt lat="47.75722" lon="5.31289">
        <ele>303</ele>
        <time>2020-08-31T20:09:38 02:00</time>
      </trkpt>
      <trkpt lat="47.75727" lon="5.31309">
        <ele>303</ele>
        <time>2020-08-31T20:09:43 02:00</time>
      </trkpt>
      <trkpt lat="47.7573" lon="5.31333">
        <ele>303</ele>
        <time>2020-08-31T20:09:48 02:00</time>
      </trkpt>
      <trkpt lat="47.75731" lon="5.31392">
        <ele>305</ele>
        <time>2020-08-31T20:09:53 02:00</time>
      </trkpt>
      <trkpt lat="47.75733" lon="5.31433">
        <ele>307</ele>
        <time>2020-08-31T20:09:58 02:00</time>
      </trkpt>
      <trkpt lat="47.7574" lon="5.31501">
        <ele>310</ele>
        <time>2020-08-31T20:10:03 02:00</time>
      </trkpt>
      <trkpt lat="47.75743" lon="5.31516">
        <ele>309</ele>
        <time>2020-08-31T20:10:08 02:00</time>
      </trkpt>
      <trkpt lat="47.75757" lon="5.31539">
        <ele>308</ele>
        <time>2020-08-31T20:10:13 02:00</time>
      </trkpt>
      <trkpt lat="47.75763" lon="5.31562">
        <ele>307</ele>
        <time>2020-08-31T20:10:18 02:00</time>
      </trkpt>
      <trkpt lat="47.75764" lon="5.31596">
        <ele>306</ele>
        <time>2020-08-31T20:10:23 02:00</time>
      </trkpt>
      <trkpt lat="47.75762" lon="5.31649">
        <ele>304</ele>
        <time>2020-08-31T20:10:28 02:00</time>
      </trkpt>
      <trkpt lat="47.75758" lon="5.31688">
        <ele>304</ele>
        <time>2020-08-31T20:10:33 02:00</time>
      </trkpt>
      <trkpt lat="47.75756" lon="5.31705">
        <ele>304</ele>
        <time>2020-08-31T20:10:38 02:00</time>
      </trkpt>
      <trkpt lat="47.75763" lon="5.31733">
        <ele>305</ele>
        <time>2020-08-31T20:10:43 02:00</time>
      </trkpt>
      <trkpt lat="47.75742" lon="5.31722">
        <ele>305</ele>
        <time>2020-08-31T20:10:48 02:00</time>
      </trkpt>
      <trkpt lat="47.75694" lon="5.31698">
        <ele>304</ele>
        <time>2020-08-31T20:10:53 02:00</time>
      </trkpt>
      <trkpt lat="47.75667" lon="5.31685">
        <ele>303</ele>
        <time>2020-08-31T20:10:58 02:00</time>
      </trkpt>
      <trkpt lat="47.75612" lon="5.31678">
        <ele>304</ele>
        <time>2020-08-31T20:11:03 02:00</time>
      </trkpt>
      <trkpt lat="47.756" lon="5.3168">
        <ele>304</ele>
        <time>2020-08-31T20:11:08 02:00</time>
      </trkpt>
      <trkpt lat="47.75595" lon="5.31687">
        <ele>304</ele>
        <time>2020-08-31T20:11:13 02:00</time>
      </trkpt>
      <trkpt lat="47.75592" lon="5.31707">
        <ele>304</ele>
        <time>2020-08-31T20:11:18 02:00</time>
      </trkpt>
      <trkpt lat="47.75579" lon="5.31714">
        <ele>303</ele>
        <time>2020-08-31T20:11:23 02:00</time>
      </trkpt>
      <trkpt lat="47.7552" lon="5.31724">
        <ele>304</ele>
        <time>2020-08-31T20:11:28 02:00</time>
      </trkpt>
      <trkpt lat="47.75478" lon="5.31736">
        <ele>304</ele>
        <time>2020-08-31T20:11:33 02:00</time>
      </trkpt>
      <trkpt lat="47.75465" lon="5.31746">
        <ele>304</ele>
        <time>2020-08-31T20:11:38 02:00</time>
      </trkpt>
      <trkpt lat="47.75452" lon="5.3176">
        <ele>303</ele>
        <time>2020-08-31T20:11:43 02:00</time>
      </trkpt>
      <trkpt lat="47.75437" lon="5.31769">
        <ele>303</ele>
        <time>2020-08-31T20:11:48 02:00</time>
      </trkpt>
      <trkpt lat="47.75398" lon="5.31776">
        <ele>303</ele>
        <time>2020-08-31T20:11:53 02:00</time>
      </trkpt>
      <trkpt lat="47.75392" lon="5.31789">
        <ele>303</ele>
        <time>2020-08-31T20:11:58 02:00</time>
      </trkpt>
      <trkpt lat="47.75413" lon="5.31892">
        <ele>305</ele>
        <time>2020-08-31T20:12:03 02:00</time>
      </trkpt>
      <trkpt lat="47.75413" lon="5.31905">
        <ele>304</ele>
        <time>2020-08-31T20:12:08 02:00</time>
      </trkpt>
      <trkpt lat="47.75405" lon="5.31918">
        <ele>304</ele>
        <time>2020-08-31T20:12:13 02:00</time>
      </trkpt>
      <trkpt lat="47.75361" lon="5.31946">
        <ele>304</ele>
        <time>2020-08-31T20:12:18 02:00</time>
      </trkpt>
      <trkpt lat="47.75352" lon="5.31949">
        <ele>304</ele>
        <time>2020-08-31T20:12:23 02:00</time>
      </trkpt>
      <trkpt lat="47.75327" lon="5.31943">
        <ele>304</ele>
        <time>2020-08-31T20:12:28 02:00</time>
      </trkpt>
      <trkpt lat="47.75307" lon="5.31927">
        <ele>304</ele>
        <time>2020-08-31T20:12:33 02:00</time>
      </trkpt>
      <trkpt lat="47.75296" lon="5.31932">
        <ele>303</ele>
        <time>2020-08-31T20:12:38 02:00</time>
      </trkpt>
      <trkpt lat="47.75242" lon="5.31982">
        <ele>302</ele>
        <time>2020-08-31T20:12:43 02:00</time>
      </trkpt>
      <trkpt lat="47.75233" lon="5.32001">
        <ele>302</ele>
        <time>2020-08-31T20:12:48 02:00</time>
      </trkpt>
      <trkpt lat="47.75232" lon="5.32008">
        <ele>302</ele>
        <time>2020-08-31T20:12:53 02:00</time>
      </trkpt>
      <trkpt lat="47.75224" lon="5.32028">
        <ele>302</ele>
        <time>2020-08-31T20:12:58 02:00</time>
      </trkpt>
      <trkpt lat="47.7522" lon="5.32043">
        <ele>302</ele>
        <time>2020-08-31T20:13:03 02:00</time>
      </trkpt>
      <trkpt lat="47.75225" lon="5.32072">
        <ele>303</ele>
        <time>2020-08-31T20:13:08 02:00</time>
      </trkpt>
      <trkpt lat="47.75228" lon="5.32092">
        <ele>303</ele>
        <time>2020-08-31T20:13:13 02:00</time>
      </trkpt>
      <trkpt lat="47.75226" lon="5.32117">
        <ele>303</ele>
        <time>2020-08-31T20:13:18 02:00</time>
      </trkpt>
      <trkpt lat="47.75228" lon="5.32142">
        <ele>303</ele>
        <time>2020-08-31T20:13:23 02:00</time>
      </trkpt>
      <trkpt lat="47.7524" lon="5.32161">
        <ele>304</ele>
        <time>2020-08-31T20:13:28 02:00</time>
      </trkpt>
      <trkpt lat="47.75249" lon="5.32212">
        <ele>304</ele>
        <time>2020-08-31T20:13:33 02:00</time>
      </trkpt>
      <trkpt lat="47.75249" lon="5.32247">
        <ele>305</ele>
        <time>2020-08-31T20:13:38 02:00</time>
      </trkpt>
      <trkpt lat="47.75246" lon="5.32272">
        <ele>305</ele>
        <time>2020-08-31T20:13:43 02:00</time>
      </trkpt>
      <trkpt lat="47.75234" lon="5.32301">
        <ele>304</ele>
        <time>2020-08-31T20:13:48 02:00</time>
      </trkpt>
      <trkpt lat="47.75225" lon="5.3231">
        <ele>304</ele>
        <time>2020-08-31T20:13:53 02:00</time>
      </trkpt>
      <trkpt lat="47.75182" lon="5.32251">
        <ele>303</ele>
        <time>2020-08-31T20:13:58 02:00</time>
      </trkpt>
      <trkpt lat="47.75148" lon="5.32234">
        <ele>302</ele>
        <time>2020-08-31T20:14:03 02:00</time>
      </trkpt>
      <trkpt lat="47.75124" lon="5.32215">
        <ele>301</ele>
        <time>2020-08-31T20:14:08 02:00</time>
      </trkpt>
      <trkpt lat="47.75109" lon="5.32188">
        <ele>301</ele>
        <time>2020-08-31T20:14:13 02:00</time>
      </trkpt>
      <trkpt lat="47.75094" lon="5.32122">
        <ele>301</ele>
        <time>2020-08-31T20:14:18 02:00</time>
      </trkpt>
      <trkpt lat="47.75084" lon="5.32089">
        <ele>301</ele>
        <time>2020-08-31T20:14:23 02:00</time>
      </trkpt>
      <trkpt lat="47.75074" lon="5.3207">
        <ele>301</ele>
        <time>2020-08-31T20:14:28 02:00</time>
      </trkpt>
      <trkpt lat="47.75028" lon="5.32014">
        <ele>301</ele>
        <time>2020-08-31T20:14:33 02:00</time>
      </trkpt>
      <trkpt lat="47.75017" lon="5.32003">
        <ele>301</ele>
        <time>2020-08-31T20:14:38 02:00</time>
      </trkpt>
      <trkpt lat="47.74981" lon="5.31962">
        <ele>301</ele>
        <time>2020-08-31T20:14:43 02:00</time>
      </trkpt>
      <trkpt lat="47.74979" lon="5.31942">
        <ele>300</ele>
        <time>2020-08-31T20:14:48 02:00</time>
      </trkpt>
      <trkpt lat="47.74969" lon="5.31921">
        <ele>299</ele>
        <time>2020-08-31T20:14:53 02:00</time>
      </trkpt>
      <trkpt lat="47.74961" lon="5.3191">
        <ele>299</ele>
        <time>2020-08-31T20:14:58 02:00</time>
      </trkpt>
      <trkpt lat="47.74941" lon="5.31895">
        <ele>299</ele>
        <time>2020-08-31T20:15:03 02:00</time>
      </trkpt>
      <trkpt lat="47.74927" lon="5.31899">
        <ele>300</ele>
        <time>2020-08-31T20:15:08 02:00</time>
      </trkpt>
      <trkpt lat="47.74908" lon="5.3192">
        <ele>302</ele>
        <time>2020-08-31T20:15:13 02:00</time>
      </trkpt>
      <trkpt lat="47.74892" lon="5.31933">
        <ele>302</ele>
        <time>2020-08-31T20:15:18 02:00</time>
      </trkpt>
      <trkpt lat="47.74794" lon="5.31995">
        <ele>300</ele>
        <time>2020-08-31T20:15:23 02:00</time>
      </trkpt>
      <trkpt lat="47.74761" lon="5.32011">
        <ele>299</ele>
        <time>2020-08-31T20:15:28 02:00</time>
      </trkpt>
      <trkpt lat="47.74698" lon="5.32022">
        <ele>298</ele>
        <time>2020-08-31T20:15:33 02:00</time>
      </trkpt>
      <trkpt lat="47.74659" lon="5.32039">
        <ele>298</ele>
        <time>2020-08-31T20:15:38 02:00</time>
      </trkpt>
      <trkpt lat="47.74653" lon="5.32064">
        <ele>300</ele>
        <time>2020-08-31T20:15:43 02:00</time>
      </trkpt>
      <trkpt lat="47.74605" lon="5.3212">
        <ele>300</ele>
        <time>2020-08-31T20:15:48 02:00</time>
      </trkpt>
      <trkpt lat="47.74583" lon="5.32146">
        <ele>302</ele>
        <time>2020-08-31T20:15:53 02:00</time>
      </trkpt>
      <trkpt lat="47.74546" lon="5.3217">
        <ele>304</ele>
        <time>2020-08-31T20:15:58 02:00</time>
      </trkpt>
      <trkpt lat="47.74489" lon="5.32173">
        <ele>302</ele>
        <time>2020-08-31T20:16:03 02:00</time>
      </trkpt>
      <trkpt lat="47.74465" lon="5.32174">
        <ele>300</ele>
        <time>2020-08-31T20:16:08 02:00</time>
      </trkpt>
      <trkpt lat="47.74425" lon="5.32182">
        <ele>297</ele>
        <time>2020-08-31T20:16:13 02:00</time>
      </trkpt>
      <trkpt lat="47.74389" lon="5.32203">
        <ele>298</ele>
        <time>2020-08-31T20:16:18 02:00</time>
      </trkpt>
      <trkpt lat="47.74369" lon="5.32247">
        <ele>301</ele>
        <time>2020-08-31T20:16:23 02:00</time>
      </trkpt>
    </trkseg>
  </trk>
</gpx>